Time;durP1;ratioP1;P1;durP2;ratioP2;P2;SDS_P1;SDS_P2;PMS_P1;PMS_P2;Temp;Humidity;BMP_temperature;BMP_pressure;BME280_temperature;BME280_humidity;BME280_pressure;Samples;Min_cycle;Max_cycle;Signal;HPM_P1;HPM_P2
2023/08/01 00:00:43;;;;;;;8.73;2.72;;;;;;;;;;5085344;28;20090;-76
2023/08/01 00:03:09;;;;;;;6.72;2.67;;;;;;;;;;5091684;28;20016;-76
2023/08/01 00:05:34;;;;;;;6.70;2.60;;;;;;;;;;5091986;28;20020;-77
2023/08/01 00:08:02;;;;;;;11.68;3.05;;;;;;;;;;5078888;28;20038;-76
2023/08/01 00:10:27;;;;;;;5.75;3.00;;;;;;;;;;5090272;28;20107;-77
2023/08/01 00:12:53;;;;;;;4.93;2.55;;;;;;;;;;5090280;28;20111;-77
2023/08/01 00:15:18;;;;;;;7.88;3.03;;;;;;;;;;5091974;28;20024;-78
2023/08/01 00:17:43;;;;;;;5.85;2.83;;;;;;;;;;5094778;28;20024;-77
2023/08/01 00:20:09;;;;;;;5.15;2.63;;;;;;;;;;5101513;28;20046;-76
2023/08/01 00:22:35;;;;;;;6.53;2.90;;;;;;;;;;5093034;28;20115;-75
2023/08/01 00:25:00;;;;;;;7.47;2.88;;;;;;;;;;5093988;28;20035;-76
2023/08/01 00:27:26;;;;;;;8.20;2.95;;;;;;;;;;5094063;28;20023;-76
2023/08/01 00:29:51;;;;;;;6.32;3.15;;;;;;;;;;5097730;28;20184;-78
2023/08/01 00:32:16;;;;;;;6.75;2.83;;;;;;;;;;5071320;28;20097;-76
2023/08/01 00:34:42;;;;;;;8.32;2.90;;;;;;;;;;5105653;28;20027;-75
2023/08/01 00:37:07;;;;;;;7.82;3.30;;;;;;;;;;5098505;28;20016;-77
2023/08/01 00:39:32;;;;;;;5.57;3.03;;;;;;;;;;5097113;28;20024;-76
2023/08/01 00:41:59;;;;;;;9.20;3.20;;;;;;;;;;5094453;28;20118;-77
2023/08/01 00:44:24;;;;;;;4.80;3.20;;;;;;;;;;5093618;28;20440;-76
2023/08/01 00:46:49;;;;;;;4.90;2.95;;;;;;;;;;5093467;28;20055;-77
2023/08/01 00:49:15;;;;;;;6.90;3.00;;;;;;;;;;5092247;28;20016;-76
2023/08/01 00:51:41;;;;;;;9.10;3.40;;;;;;;;;;5093485;28;20536;-76
2023/08/01 00:54:06;;;;;;;8.27;3.60;;;;;;;;;;5088764;28;20025;-76
2023/08/01 00:56:32;;;;;;;17.10;3.90;;;;;;;;;;5091332;28;20026;-77
2023/08/01 00:58:58;;;;;;;8.88;3.75;;;;;;;;;;5088746;28;20078;-77
2023/08/01 01:01:23;;;;;;;6.20;3.38;;;;;;;;;;5093092;28;20039;-77
2023/08/01 01:03:50;;;;;;;8.20;3.95;;;;;;;;;;5090775;28;20020;-76
2023/08/01 01:06:31;;;;;;;4.90;3.70;;;;;;;;;;5094670;28;20020;-77
2023/08/01 01:08:56;;;;;;;6.95;3.88;;;;;;;;;;5098224;28;20027;-76
2023/08/01 01:11:22;;;;;;;7.40;3.70;;;;;;;;;;5091037;28;20024;-75
2023/08/01 01:13:47;;;;;;;6.15;3.63;;;;;;;;;;5101961;28;20059;-76
2023/08/01 01:16:13;;;;;;;9.52;4.07;;;;;;;;;;5095574;28;20008;-76
2023/08/01 01:18:38;;;;;;;6.35;3.40;;;;;;;;;;5099499;28;20125;-76
2023/08/01 01:21:05;;;;;;;7.10;3.00;;;;;;;;;;5096153;28;20027;-76
2023/08/01 01:23:31;;;;;;;10.00;3.78;;;;;;;;;;5102525;28;20016;-76
2023/08/01 01:25:58;;;;;;;4.80;3.05;;;;;;;;;;5097651;28;20016;-76
2023/08/01 01:28:24;;;;;;;6.18;3.58;;;;;;;;;;5094266;28;20387;-76
2023/08/01 01:30:52;;;;;;;5.88;3.00;;;;;;;;;;5091988;28;20361;-75
2023/08/01 01:33:18;;;;;;;6.20;3.10;;;;;;;;;;5080986;28;20502;-75
2023/08/01 01:35:44;;;;;;;7.60;3.05;;;;;;;;;;5091436;28;20024;-75
2023/08/01 01:38:09;;;;;;;7.55;3.03;;;;;;;;;;5109548;28;20024;-76
2023/08/01 01:40:34;;;;;;;5.97;3.30;;;;;;;;;;5089677;28;20024;-76
2023/08/01 01:43:00;;;;;;;5.95;2.70;;;;;;;;;;5092886;28;20047;-76
2023/08/01 01:45:27;;;;;;;7.18;2.97;;;;;;;;;;5083847;28;20460;-87
2023/08/01 01:47:52;;;;;;;9.07;3.08;;;;;;;;;;5109098;28;20504;-87
2023/08/01 01:50:18;;;;;;;8.68;2.80;;;;;;;;;;5089456;28;20058;-87
2023/08/01 01:52:44;;;;;;;8.73;2.92;;;;;;;;;;5093386;28;20483;-87
2023/08/01 01:55:09;;;;;;;7.47;3.03;;;;;;;;;;5088832;28;20035;-85
2023/08/01 01:57:36;;;;;;;10.20;3.45;;;;;;;;;;5092232;28;20020;-87
2023/08/01 02:00:03;;;;;;;7.13;3.30;;;;;;;;;;5090812;28;20399;-87
2023/08/01 02:02:29;;;;;;;9.05;2.92;;;;;;;;;;5085258;28;20024;-85
2023/08/01 02:04:54;;;;;;;8.60;2.70;;;;;;;;;;5090521;28;20020;-88
2023/08/01 02:07:20;;;;;;;12.85;3.20;;;;;;;;;;5107016;27;20024;-87
2023/08/01 02:09:46;;;;;;;9.13;3.10;;;;;;;;;;5093107;28;20027;-87
2023/08/01 02:12:13;;;;;;;5.60;2.63;;;;;;;;;;5075382;28;20031;-87
2023/08/01 02:14:39;;;;;;;7.53;2.83;;;;;;;;;;5090058;28;20051;-86
2023/08/01 02:17:05;;;;;;;7.90;2.70;;;;;;;;;;5077723;28;20055;-86
2023/08/01 02:19:30;;;;;;;7.25;3.03;;;;;;;;;;5089153;28;20445;-86
2023/08/01 02:21:55;;;;;;;11.90;3.10;;;;;;;;;;5092610;28;20030;-88
2023/08/01 02:24:21;;;;;;;6.07;2.53;;;;;;;;;;5090041;28;20024;-88
2023/08/01 02:26:46;;;;;;;6.50;3.03;;;;;;;;;;5060462;28;20510;-87
2023/08/01 02:29:12;;;;;;;11.38;3.22;;;;;;;;;;5082568;28;20025;-84
2023/08/01 02:31:37;;;;;;;12.18;3.13;;;;;;;;;;5092944;28;20031;-87
2023/08/01 02:34:02;;;;;;;10.45;3.05;;;;;;;;;;5091815;28;20080;-87
2023/08/01 02:36:28;;;;;;;10.73;3.00;;;;;;;;;;5090968;28;20357;-87
2023/08/01 02:38:53;;;;;;;8.85;2.95;;;;;;;;;;5089668;28;20031;-88
2023/08/01 02:41:19;;;;;;;7.35;3.35;;;;;;;;;;5089608;28;20057;-86
2023/08/01 02:43:44;;;;;;;8.77;3.22;;;;;;;;;;5090307;28;20024;-88
2023/08/01 02:46:10;;;;;;;7.97;2.63;;;;;;;;;;5091367;28;20429;-87
2023/08/01 02:48:35;;;;;;;8.98;3.42;;;;;;;;;;5096306;28;20077;-87
2023/08/01 02:51:01;;;;;;;9.43;3.20;;;;;;;;;;5092722;28;20020;-87
2023/08/01 02:53:27;;;;;;;7.90;3.15;;;;;;;;;;5091242;28;20089;-76
2023/08/01 02:55:52;;;;;;;7.50;3.10;;;;;;;;;;5095809;28;20026;-76
2023/08/01 02:58:17;;;;;;;13.50;3.55;;;;;;;;;;5097151;28;20054;-76
2023/08/01 03:00:43;;;;;;;10.35;3.05;;;;;;;;;;5091343;28;20031;-77
2023/08/01 03:03:08;;;;;;;6.03;3.08;;;;;;;;;;5090679;28;20016;-75
2023/08/01 03:05:37;;;;;;;7.20;2.80;;;;;;;;;;5095000;28;20028;-77
2023/08/01 03:08:04;;;;;;;7.72;3.30;;;;;;;;;;5091344;28;20020;-77
2023/08/01 03:10:29;;;;;;;13.05;3.10;;;;;;;;;;5086745;28;20051;-76
2023/08/01 03:12:55;;;;;;;8.82;3.67;;;;;;;;;;5082979;28;20057;-76
2023/08/01 03:15:20;;;;;;;10.07;3.80;;;;;;;;;;5085914;28;20112;-76
2023/08/01 03:17:45;;;;;;;9.32;3.67;;;;;;;;;;5089646;28;20040;-75
2023/08/01 03:20:11;;;;;;;9.45;4.10;;;;;;;;;;5100532;28;20028;-76
2023/08/01 03:22:40;;;;;;;16.42;4.18;;;;;;;;;;5091789;28;20067;-76
2023/08/01 03:25:07;;;;;;;9.77;3.85;;;;;;;;;;5089636;28;20074;-76
2023/08/01 03:27:33;;;;;;;9.43;3.75;;;;;;;;;;5083256;28;20020;-76
2023/08/01 03:29:59;;;;;;;8.00;3.10;;;;;;;;;;5085574;28;20027;-76
2023/08/01 03:32:24;;;;;;;11.25;3.00;;;;;;;;;;5090447;28;20024;-76
2023/08/01 03:34:50;;;;;;;7.95;3.50;;;;;;;;;;5073685;28;20039;-76
2023/08/01 03:37:16;;;;;;;9.52;3.30;;;;;;;;;;5090187;28;20024;-75
2023/08/01 03:39:41;;;;;;;10.05;3.90;;;;;;;;;;5093098;28;20016;-76
2023/08/01 03:42:07;;;;;;;9.05;3.33;;;;;;;;;;5089512;28;20035;-77
2023/08/01 03:44:33;;;;;;;9.32;3.50;;;;;;;;;;5072696;28;20418;-77
2023/08/01 03:46:59;;;;;;;8.25;3.33;;;;;;;;;;5085940;28;20116;-76
2023/08/01 03:49:24;;;;;;;9.38;3.60;;;;;;;;;;5092084;28;20012;-76
2023/08/01 03:51:50;;;;;;;15.38;3.63;;;;;;;;;;5090788;28;20030;-76
2023/08/01 03:54:15;;;;;;;10.60;3.50;;;;;;;;;;5095954;28;20475;-75
2023/08/01 03:56:43;;;;;;;6.80;3.13;;;;;;;;;;5088816;28;20028;-76
2023/08/01 03:59:09;;;;;;;7.50;3.60;;;;;;;;;;5091165;28;20375;-76
2023/08/01 04:01:35;;;;;;;9.40;3.60;;;;;;;;;;5098474;28;20028;-76
2023/08/01 04:04:00;;;;;;;5.35;2.92;;;;;;;;;;5106916;28;20031;-88
2023/08/01 04:06:26;;;;;;;7.63;3.58;;;;;;;;;;5116757;28;20030;-87
2023/08/01 04:08:52;;;;;;;10.63;3.88;;;;;;;;;;5111168;28;20024;-91
2023/08/01 04:11:17;;;;;;;6.53;3.17;;;;;;;;;;5114942;28;20027;-91
2023/08/01 04:13:43;;;;;;;8.02;3.70;;;;;;;;;;5113372;28;20028;-88
2023/08/01 04:16:08;;;;;;;9.10;3.85;;;;;;;;;;5115864;28;20015;-89
2023/08/01 04:18:34;;;;;;;7.60;3.90;;;;;;;;;;5114928;28;20046;-88
2023/08/01 04:20:59;;;;;;;7.03;3.95;;;;;;;;;;5115351;28;20028;-87
2023/08/01 04:23:24;;;;;;;8.02;4.18;;;;;;;;;;5116112;28;20015;-90
2023/08/01 04:25:50;;;;;;;10.70;4.85;;;;;;;;;;5114705;28;20046;-86
2023/08/01 04:28:15;;;;;;;10.52;4.40;;;;;;;;;;5114862;28;20027;-91
2023/08/01 04:30:41;;;;;;;11.73;4.63;;;;;;;;;;5116788;28;20015;-90
2023/08/01 04:33:06;;;;;;;12.73;5.30;;;;;;;;;;5103212;28;20036;-88
2023/08/01 04:35:31;;;;;;;9.45;4.93;;;;;;;;;;5116850;28;20028;-85
2023/08/01 04:37:57;;;;;;;12.73;5.63;;;;;;;;;;5116311;28;20032;-91
2023/08/01 04:40:22;;;;;;;9.82;4.93;;;;;;;;;;5107841;28;20079;-79
2023/08/01 04:42:47;;;;;;;10.80;5.53;;;;;;;;;;5116492;28;20024;-91
2023/08/01 04:45:14;;;;;;;8.63;5.10;;;;;;;;;;5114576;28;20035;-90
2023/08/01 04:47:39;;;;;;;10.95;4.88;;;;;;;;;;5120523;28;20027;-91
2023/08/01 04:50:05;;;;;;;10.88;5.45;;;;;;;;;;5119931;28;20031;-91
2023/08/01 04:52:30;;;;;;;10.95;4.93;;;;;;;;;;5111285;28;20414;-91
2023/08/01 04:54:56;;;;;;;11.15;4.68;;;;;;;;;;5114623;28;20039;-84
2023/08/01 04:57:21;;;;;;;9.95;5.10;;;;;;;;;;5115351;28;20027;-87
2023/08/01 04:59:47;;;;;;;9.90;4.78;;;;;;;;;;5113284;28;20031;-89
2023/08/01 05:02:12;;;;;;;10.63;5.15;;;;;;;;;;5112324;28;20049;-86
2023/08/01 05:04:37;;;;;;;10.95;4.70;;;;;;;;;;5113070;28;20039;-91
2023/08/01 05:07:05;;;;;;;9.98;4.78;;;;;;;;;;5113479;28;20084;-87
2023/08/01 05:09:31;;;;;;;9.27;4.45;;;;;;;;;;5114733;28;20016;-88
2023/08/01 05:11:57;;;;;;;11.05;4.80;;;;;;;;;;5114939;28;20046;-88
2023/08/01 05:14:22;;;;;;;9.38;4.68;;;;;;;;;;5102382;28;20050;-87
2023/08/01 05:16:48;;;;;;;10.93;4.38;;;;;;;;;;5092233;28;20023;-88
2023/08/01 05:19:13;;;;;;;15.95;5.13;;;;;;;;;;5085887;28;20365;-87
2023/08/01 05:21:38;;;;;;;9.93;4.32;;;;;;;;;;5087533;28;20100;-87
2023/08/01 05:24:04;;;;;;;13.73;4.93;;;;;;;;;;5102852;28;20011;-88
2023/08/01 05:26:29;;;;;;;11.00;4.60;;;;;;;;;;5086822;28;20025;-87
2023/08/01 05:28:55;;;;;;;13.63;4.40;;;;;;;;;;5097422;28;20089;-88
2023/08/01 05:31:20;;;;;;;9.10;4.47;;;;;;;;;;5093145;28;20024;-88
2023/08/01 05:33:45;;;;;;;15.02;5.20;;;;;;;;;;5092605;28;20099;-86
2023/08/01 05:36:11;;;;;;;9.38;3.88;;;;;;;;;;5092690;28;20176;-88
2023/08/01 05:38:36;;;;;;;12.65;4.25;;;;;;;;;;5086458;28;20062;-88
2023/08/01 05:41:02;;;;;;;10.25;4.50;;;;;;;;;;5086012;28;20453;-87
2023/08/01 05:43:27;;;;;;;10.15;4.72;;;;;;;;;;5091759;28;20020;-88
2023/08/01 05:45:52;;;;;;;11.77;4.53;;;;;;;;;;5079979;28;20032;-87
2023/08/01 05:48:18;;;;;;;8.52;4.07;;;;;;;;;;5092779;28;20012;-88
2023/08/01 05:50:43;;;;;;;12.45;4.18;;;;;;;;;;5092371;28;20031;-88
2023/08/01 05:53:09;;;;;;;11.43;4.82;;;;;;;;;;5095549;28;20394;-88
2023/08/01 05:55:34;;;;;;;12.45;4.80;;;;;;;;;;5087196;28;20085;-87
2023/08/01 05:58:00;;;;;;;10.00;4.47;;;;;;;;;;5086727;28;20143;-87
2023/08/01 06:00:25;;;;;;;7.80;3.75;;;;;;;;;;5088373;28;20472;-88
2023/08/01 06:02:51;;;;;;;13.48;4.50;;;;;;;;;;5083733;28;20035;-87
2023/08/01 06:05:16;;;;;;;8.55;4.30;;;;;;;;;;5087393;28;20067;-88
2023/08/01 06:07:42;;;;;;;8.57;4.20;;;;;;;;;;5088394;28;20028;-88
2023/08/01 06:10:07;;;;;;;12.02;4.43;;;;;;;;;;5080522;28;20020;-87
2023/08/01 06:12:33;;;;;;;9.40;4.50;;;;;;;;;;5081674;28;20063;-87
2023/08/01 06:14:58;;;;;;;13.65;4.65;;;;;;;;;;5087244;28;20033;-88
2023/08/01 06:17:24;;;;;;;12.13;4.13;;;;;;;;;;5077275;28;20016;-88
2023/08/01 06:19:49;;;;;;;10.30;4.40;;;;;;;;;;5091161;28;20020;-87
2023/08/01 06:22:15;;;;;;;9.43;4.25;;;;;;;;;;5090196;28;20020;-88
2023/08/01 06:24:41;;;;;;;11.18;4.20;;;;;;;;;;5085061;28;20024;-77
2023/08/01 06:27:06;;;;;;;11.63;4.13;;;;;;;;;;5094122;28;20410;-76
2023/08/01 06:29:31;;;;;;;10.48;4.30;;;;;;;;;;5093445;28;20024;-77
2023/08/01 06:31:57;;;;;;;11.07;4.15;;;;;;;;;;5089178;28;20054;-77
2023/08/01 06:34:22;;;;;;;12.27;4.53;;;;;;;;;;5083659;28;20111;-76
2023/08/01 06:36:48;;;;;;;12.40;4.28;;;;;;;;;;5088769;28;20020;-77
2023/08/01 06:39:13;;;;;;;8.80;4.20;;;;;;;;;;5091347;28;20028;-77
2023/08/01 06:41:39;;;;;;;13.75;3.75;;;;;;;;;;5096913;28;20016;-77
2023/08/01 06:44:04;;;;;;;11.77;4.30;;;;;;;;;;5091900;28;20024;-77
2023/08/01 06:46:29;;;;;;;9.02;4.00;;;;;;;;;;5086741;28;20049;-76
2023/08/01 06:48:55;;;;;;;11.35;4.35;;;;;;;;;;5092899;28;20032;-77
2023/08/01 06:51:21;;;;;;;9.23;4.00;;;;;;;;;;5090121;28;20028;-77
2023/08/01 06:53:46;;;;;;;14.77;4.72;;;;;;;;;;5092227;28;20089;-77
2023/08/01 06:56:12;;;;;;;9.20;4.25;;;;;;;;;;5090699;28;20372;-77
2023/08/01 06:58:37;;;;;;;12.18;4.25;;;;;;;;;;5090163;28;20055;-77
2023/08/01 07:01:03;;;;;;;10.23;3.67;;;;;;;;;;5089982;28;20395;-77
2023/08/01 07:03:28;;;;;;;8.60;3.67;;;;;;;;;;5090749;28;20031;-77
2023/08/01 07:05:54;;;;;;;6.75;3.45;;;;;;;;;;5090678;28;20077;-76
2023/08/01 07:08:21;;;;;;;9.88;4.03;;;;;;;;;;5090786;28;20027;-78
2023/08/01 07:10:47;;;;;;;9.38;3.28;;;;;;;;;;5094349;28;20499;-77
2023/08/01 07:13:12;;;;;;;8.40;3.92;;;;;;;;;;5091575;28;20020;-76
2023/08/01 07:15:37;;;;;;;8.40;3.30;;;;;;;;;;5089443;28;20024;-77
2023/08/01 07:18:03;;;;;;;9.32;3.55;;;;;;;;;;5086613;28;20442;-77
2023/08/01 07:20:28;;;;;;;9.32;3.65;;;;;;;;;;5100970;28;20016;-77
2023/08/01 07:22:54;;;;;;;9.27;3.05;;;;;;;;;;5089972;28;20024;-77
2023/08/01 07:25:19;;;;;;;10.10;3.75;;;;;;;;;;5089582;28;20028;-77
2023/08/01 07:27:45;;;;;;;9.02;3.35;;;;;;;;;;5094059;28;20387;-77
2023/08/01 07:30:11;;;;;;;11.27;3.83;;;;;;;;;;5095290;28;20024;-76
2023/08/01 07:32:39;;;;;;;8.57;2.92;;;;;;;;;;5096012;28;20031;-77
2023/08/01 07:35:06;;;;;;;10.77;3.25;;;;;;;;;;5092405;28;20035;-88
2023/08/01 07:37:33;;;;;;;9.02;2.55;;;;;;;;;;5086255;28;20016;-88
2023/08/01 07:39:59;;;;;;;9.02;2.58;;;;;;;;;;5118727;27;20081;-88
2023/08/01 07:42:24;;;;;;;8.55;2.40;;;;;;;;;;5094049;28;20035;-87
2023/08/01 07:44:49;;;;;;;9.13;2.88;;;;;;;;;;5095474;28;20024;-88
2023/08/01 07:47:15;;;;;;;10.27;3.15;;;;;;;;;;5095855;28;20047;-87
2023/08/01 07:49:40;;;;;;;8.45;3.05;;;;;;;;;;5078608;28;20048;-89
2023/08/01 07:52:06;;;;;;;6.45;2.80;;;;;;;;;;5092237;28;20488;-89
2023/08/01 07:54:31;;;;;;;8.60;3.30;;;;;;;;;;5087320;28;20028;-90
2023/08/01 07:56:57;;;;;;;8.82;3.40;;;;;;;;;;5082825;28;20111;-90
2023/08/01 07:59:22;;;;;;;9.57;3.28;;;;;;;;;;5083042;28;20119;-88
2023/08/01 08:01:48;;;;;;;4.55;2.28;;;;;;;;;;5094567;28;20122;-85
2023/08/01 08:04:14;;;;;;;4.47;1.90;;;;;;;;;;5091374;28;20036;-87
2023/08/01 08:06:40;;;;;;;6.15;2.28;;;;;;;;;;5095604;28;20024;-87
2023/08/01 08:09:05;;;;;;;5.82;1.92;;;;;;;;;;5088324;28;20029;-88
2023/08/01 08:11:31;;;;;;;5.07;1.73;;;;;;;;;;5089463;28;20268;-88
2023/08/01 08:13:56;;;;;;;4.28;2.10;;;;;;;;;;5097376;28;20055;-87
2023/08/01 08:16:21;;;;;;;7.88;3.15;;;;;;;;;;5094102;28;20016;-89
2023/08/01 08:18:47;;;;;;;7.43;2.40;;;;;;;;;;5094286;28;20027;-89
2023/08/01 08:21:12;;;;;;;8.35;2.88;;;;;;;;;;5093655;28;20119;-89
2023/08/01 08:23:38;;;;;;;6.97;2.65;;;;;;;;;;5091006;28;20152;-89
2023/08/01 08:26:04;;;;;;;7.15;2.38;;;;;;;;;;5091611;28;20035;-87
2023/08/01 08:28:32;;;;;;;10.40;2.35;;;;;;;;;;5110002;28;20028;-86
2023/08/01 08:30:59;;;;;;;6.57;2.80;;;;;;;;;;5092959;28;20020;-88
2023/08/01 08:33:24;;;;;;;8.30;2.83;;;;;;;;;;5092590;28;20383;-88
2023/08/01 08:35:50;;;;;;;6.15;2.13;;;;;;;;;;5094045;28;20016;-88
2023/08/01 08:38:17;;;;;;;9.32;2.30;;;;;;;;;;5092478;28;20028;-88
2023/08/01 08:41:08;;;;;;;8.18;2.45;;;;;;;;;;5093611;28;20028;-88
2023/08/01 08:43:34;;;;;;;11.02;2.83;;;;;;;;;;5095475;28;20105;-78
2023/08/01 08:46:01;;;;;;;7.88;2.20;;;;;;;;;;5094133;28;20028;-77
2023/08/01 08:48:27;;;;;;;5.10;2.20;;;;;;;;;;5094787;28;20016;-77
2023/08/01 08:50:52;;;;;;;7.30;2.35;;;;;;;;;;5093496;28;20396;-77
2023/08/01 08:53:18;;;;;;;6.50;1.98;;;;;;;;;;5092744;28;20036;-77
2023/08/01 08:55:44;;;;;;;9.80;2.28;;;;;;;;;;5090232;28;20586;-77
2023/08/01 08:58:10;;;;;;;8.43;1.90;;;;;;;;;;5094888;28;20104;-77
2023/08/01 09:00:38;;;;;;;7.90;2.22;;;;;;;;;;5093657;28;20115;-77
2023/08/01 09:03:04;;;;;;;6.90;2.35;;;;;;;;;;5091057;28;20449;-76
2023/08/01 09:05:40;;;;;;;4.25;1.85;;;;;;;;;;5093321;28;20464;-77
2023/08/01 09:08:15;;;;;;;5.10;1.85;;;;;;;;;;5094176;28;20449;-77
2023/08/01 09:10:40;;;;;;;8.07;1.98;;;;;;;;;;5094904;28;20095;-77
2023/08/01 09:13:08;;;;;;;7.97;2.08;;;;;;;;;;5074372;28;20071;-76
2023/08/01 09:15:34;;;;;;;7.95;2.15;;;;;;;;;;5086761;28;20044;-77
2023/08/01 09:18:02;;;;;;;4.65;1.98;;;;;;;;;;5099724;28;20020;-77
2023/08/01 09:20:27;;;;;;;6.88;2.30;;;;;;;;;;5101462;28;20031;-77
2023/08/01 09:22:53;;;;;;;7.45;2.03;;;;;;;;;;5091313;28;20028;-77
2023/08/01 09:25:19;;;;;;;3.85;1.90;;;;;;;;;;5095874;28;20027;-78
2023/08/01 09:27:44;;;;;;;3.80;1.90;;;;;;;;;;5093894;28;20106;-77
2023/08/01 09:30:18;;;;;;;5.38;2.00;;;;;;;;;;5086093;28;20017;-77
2023/08/01 09:32:53;;;;;;;7.05;2.38;;;;;;;;;;5089848;28;20038;-77
2023/08/01 09:35:19;;;;;;;4.95;1.98;;;;;;;;;;5099785;28;20308;-77
2023/08/01 09:37:44;;;;;;;5.85;2.10;;;;;;;;;;5089489;28;20051;-77
2023/08/01 09:40:10;;;;;;;6.72;2.38;;;;;;;;;;5096961;28;20058;-77
2023/08/01 09:42:43;;;;;;;11.35;2.55;;;;;;;;;;5093529;28;20383;-78
2023/08/01 09:45:16;;;;;;;5.55;2.42;;;;;;;;;;5098537;28;20108;-77
2023/08/01 09:47:42;;;;;;;5.03;1.90;;;;;;;;;;5089074;28;20454;-77
2023/08/01 09:50:10;;;;;;;7.50;1.92;;;;;;;;;;5093775;28;20089;-77
2023/08/01 09:52:35;;;;;;;4.03;1.85;;;;;;;;;;5093403;28;20084;-77
2023/08/01 09:55:01;;;;;;;7.32;2.70;;;;;;;;;;5095247;28;20084;-90
2023/08/01 09:57:29;;;;;;;5.97;1.80;;;;;;;;;;5096859;28;20056;-89
2023/08/01 09:59:59;;;;;;;5.97;2.13;;;;;;;;;;5095371;28;20024;-91
2023/08/01 10:02:26;;;;;;;6.97;2.22;;;;;;;;;;5097863;28;20024;-90
2023/08/01 10:04:58;;;;;;;7.65;1.95;;;;;;;;;;5098670;28;20525;-91
2023/08/01 10:07:26;;;;;;;6.88;2.17;;;;;;;;;;5098149;28;20099;-90
2023/08/01 10:09:57;;;;;;;6.97;1.92;;;;;;;;;;5098494;28;20031;-90
2023/08/01 10:12:26;;;;;;;5.75;1.90;;;;;;;;;;5091563;28;20169;-91
2023/08/01 10:14:53;;;;;;;10.15;2.20;;;;;;;;;;5103593;28;20021;-91
2023/08/01 10:17:19;;;;;;;5.47;2.42;;;;;;;;;;5102179;28;20020;-90
2023/08/01 10:19:47;;;;;;;4.78;2.00;;;;;;;;;;5103750;28;20051;-93
2023/08/01 10:22:13;;;;;;;8.20;2.17;;;;;;;;;;5090131;28;20020;-88
2023/08/01 10:24:39;;;;;;;6.20;2.00;;;;;;;;;;5094594;28;20021;-87
2023/08/01 10:27:18;;;;;;;5.95;2.05;;;;;;;;;;5109276;28;20452;-91
2023/08/01 10:29:43;;;;;;;9.75;2.10;;;;;;;;;;5095202;28;20365;-91
2023/08/01 10:32:09;;;;;;;6.93;2.47;;;;;;;;;;5101842;28;20058;-91
2023/08/01 10:34:35;;;;;;;8.23;2.15;;;;;;;;;;5104384;28;20479;-89
2023/08/01 10:37:01;;;;;;;7.32;2.10;;;;;;;;;;5104709;28;20024;-91
2023/08/01 10:39:27;;;;;;;6.40;1.95;;;;;;;;;;5102845;28;20410;-90
2023/08/01 10:42:01;;;;;;;8.18;2.00;;;;;;;;;;5097723;28;20040;-91
2023/08/01 10:44:27;;;;;;;6.75;1.95;;;;;;;;;;5095261;28;20027;-92
2023/08/01 10:46:56;;;;;;;7.15;2.10;;;;;;;;;;5099404;28;20028;-81
2023/08/01 10:49:42;;;;;;;7.55;2.28;;;;;;;;;;5098211;28;20028;-91
2023/08/01 10:52:19;;;;;;;7.38;2.20;;;;;;;;;;5101135;28;20032;-90
2023/08/01 10:54:45;;;;;;;10.00;2.67;;;;;;;;;;5103278;28;20042;-91
2023/08/01 10:57:17;;;;;;;5.95;2.22;;;;;;;;;;5098043;28;20051;-90
2023/08/01 10:59:44;;;;;;;6.22;2.13;;;;;;;;;;5098672;28;20091;-91
2023/08/01 11:02:09;;;;;;;5.07;1.83;;;;;;;;;;5098096;28;20028;-88
2023/08/01 11:04:34;;;;;;;8.85;2.10;;;;;;;;;;5093330;28;20030;-76
2023/08/01 11:07:00;;;;;;;6.38;1.92;;;;;;;;;;5092063;28;20124;-77
2023/08/01 11:09:27;;;;;;;7.22;1.95;;;;;;;;;;5092429;28;20016;-77
2023/08/01 11:11:59;;;;;;;5.88;2.35;;;;;;;;;;5098614;28;20020;-78
2023/08/01 11:14:29;;;;;;;7.35;2.10;;;;;;;;;;5092378;28;20374;-77
2023/08/01 11:16:56;;;;;;;7.85;2.28;;;;;;;;;;5093852;28;20547;-76
2023/08/01 11:19:25;;;;;;;4.47;1.77;;;;;;;;;;5092201;28;20069;-78
2023/08/01 11:21:51;;;;;;;4.30;1.52;;;;;;;;;;5092322;28;20020;-76
2023/08/01 11:24:19;;;;;;;4.57;1.77;;;;;;;;;;5088194;28;20087;-76
2023/08/01 11:26:49;;;;;;;4.20;1.50;;;;;;;;;;5090928;28;20016;-77
2023/08/01 11:29:15;;;;;;;5.32;1.70;;;;;;;;;;5085641;28;20020;-76
2023/08/01 11:31:52;;;;;;;6.50;2.17;;;;;;;;;;5099038;28;20029;-77
2023/08/01 11:34:18;;;;;;;5.93;1.80;;;;;;;;;;5084157;28;20077;-77
2023/08/01 11:36:45;;;;;;;6.70;1.92;;;;;;;;;;5086710;28;20024;-76
2023/08/01 11:39:12;;;;;;;6.20;2.00;;;;;;;;;;5085766;28;20020;-77
2023/08/01 11:41:38;;;;;;;6.95;1.80;;;;;;;;;;5086236;28;20070;-77
2023/08/01 11:44:04;;;;;;;7.32;2.13;;;;;;;;;;5092708;28;20080;-75
2023/08/01 11:46:35;;;;;;;7.10;2.13;;;;;;;;;;5089318;28;20031;-77
2023/08/01 11:49:01;;;;;;;5.50;1.70;;;;;;;;;;5084263;28;20475;-77
2023/08/01 11:51:28;;;;;;;5.93;1.65;;;;;;;;;;5097315;28;20016;-75
2023/08/01 11:54:03;;;;;;;8.30;1.80;;;;;;;;;;5086283;28;20078;-76
2023/08/01 11:56:30;;;;;;;8.23;1.80;;;;;;;;;;5090711;28;20024;-76
2023/08/01 11:58:56;;;;;;;5.22;1.70;;;;;;;;;;5094114;28;20073;-76
2023/08/01 12:01:22;;;;;;;5.57;1.60;;;;;;;;;;5080718;28;20024;-76
2023/08/01 12:03:52;;;;;;;6.07;1.73;;;;;;;;;;5093144;28;20031;-75
2023/08/01 12:06:23;;;;;;;6.22;1.67;;;;;;;;;;5082752;28;20020;-75
2023/08/01 12:08:50;;;;;;;5.90;1.30;;;;;;;;;;5091914;28;20081;-75
2023/08/01 12:11:22;;;;;;;8.40;1.65;;;;;;;;;;5092348;28;20024;-75
2023/08/01 12:13:48;;;;;;;6.20;1.25;;;;;;;;;;5087915;28;20089;-87
2023/08/01 12:16:17;;;;;;;4.10;1.50;;;;;;;;;;5094269;28;20051;-88
2023/08/01 12:18:44;;;;;;;8.40;2.03;;;;;;;;;;5094378;28;20024;-87
2023/08/01 12:21:10;;;;;;;6.07;1.45;;;;;;;;;;5094363;28;20024;-88
2023/08/01 12:23:36;;;;;;;4.10;1.45;;;;;;;;;;5095701;28;20077;-87
2023/08/01 12:26:01;;;;;;;4.43;1.30;;;;;;;;;;5093871;28;20464;-86
2023/08/01 12:28:27;;;;;;;7.00;1.20;;;;;;;;;;5089370;28;20016;-88
2023/08/01 12:30:52;;;;;;;6.18;1.58;;;;;;;;;;5091785;28;20093;-89
2023/08/01 12:33:17;;;;;;;4.13;1.27;;;;;;;;;;5092748;28;20111;-88
2023/08/01 12:35:43;;;;;;;5.55;1.30;;;;;;;;;;5091464;28;20028;-88
2023/08/01 12:38:09;;;;;;;6.32;1.23;;;;;;;;;;5095078;28;20074;-88
2023/08/01 12:40:35;;;;;;;6.30;1.63;;;;;;;;;;5093878;28;20028;-88
2023/08/01 12:43:00;;;;;;;7.10;1.73;;;;;;;;;;5094608;28;20099;-88
2023/08/01 12:45:25;;;;;;;5.00;1.50;;;;;;;;;;5084983;28;20531;-87
2023/08/01 12:47:51;;;;;;;6.80;1.90;;;;;;;;;;5088685;28;20032;-89
2023/08/01 12:50:16;;;;;;;6.45;1.27;;;;;;;;;;5090059;28;20028;-87
2023/08/01 12:52:42;;;;;;;7.63;1.50;;;;;;;;;;5093286;28;20047;-88
2023/08/01 12:55:07;;;;;;;4.80;1.48;;;;;;;;;;5084166;28;20111;-88
2023/08/01 12:57:33;;;;;;;5.68;1.40;;;;;;;;;;5089161;28;20463;-90
2023/08/01 12:59:59;;;;;;;5.13;1.55;;;;;;;;;;5082030;28;20619;-88
2023/08/01 13:02:25;;;;;;;4.25;1.23;;;;;;;;;;5094028;28;20379;-83
2023/08/01 13:04:50;;;;;;;6.43;1.17;;;;;;;;;;5094018;28;20130;-89
2023/08/01 13:07:15;;;;;;;3.35;1.17;;;;;;;;;;5093940;28;20043;-89
2023/08/01 13:09:41;;;;;;;3.88;1.15;;;;;;;;;;5087942;28;20099;-85
2023/08/01 13:12:06;;;;;;;5.97;1.35;;;;;;;;;;5093923;28;20051;-89
2023/08/01 13:14:33;;;;;;;6.47;1.63;;;;;;;;;;5087167;28;20059;-89
2023/08/01 13:16:59;;;;;;;5.10;1.30;;;;;;;;;;5083570;28;20020;-86
2023/08/01 13:19:24;;;;;;;4.20;1.50;;;;;;;;;;5094187;28;20031;-89
2023/08/01 13:21:50;;;;;;;2.63;1.20;;;;;;;;;;5088417;28;20020;-87
2023/08/01 13:24:15;;;;;;;4.68;1.45;;;;;;;;;;5079643;28;20020;-76
2023/08/01 13:26:41;;;;;;;8.52;1.42;;;;;;;;;;5093818;28;20031;-76
2023/08/01 13:29:06;;;;;;;4.00;1.35;;;;;;;;;;5091084;28;20020;-76
2023/08/01 13:31:31;;;;;;;3.70;1.63;;;;;;;;;;5093673;28;20056;-76
2023/08/01 13:33:57;;;;;;;4.57;1.45;;;;;;;;;;5092303;28;20024;-76
2023/08/01 13:36:23;;;;;;;5.72;1.63;;;;;;;;;;5083628;28;20107;-75
2023/08/01 13:38:49;;;;;;;3.85;1.35;;;;;;;;;;5094085;28;20485;-76
2023/08/01 13:41:15;;;;;;;4.45;1.38;;;;;;;;;;5095094;28;20047;-76
2023/08/01 13:43:40;;;;;;;6.28;2.00;;;;;;;;;;5090972;28;20020;-75
2023/08/01 13:46:17;;;;;;;4.40;1.20;;;;;;;;;;5093804;28;20111;-76
2023/08/01 13:48:43;;;;;;;5.40;1.45;;;;;;;;;;5082318;28;20031;-77
2023/08/01 13:51:09;;;;;;;5.78;1.50;;;;;;;;;;5091509;28;20034;-76
2023/08/01 13:53:40;;;;;;;6.80;1.65;;;;;;;;;;5085033;28;20086;-76
2023/08/01 13:56:06;;;;;;;4.30;1.48;;;;;;;;;;5090758;28;20024;-76
2023/08/01 13:58:32;;;;;;;4.40;1.33;;;;;;;;;;5093537;28;20028;-76
2023/08/01 14:01:05;;;;;;;7.10;1.40;;;;;;;;;;5090872;28;20024;-76
2023/08/01 14:03:32;;;;;;;5.63;1.63;;;;;;;;;;5083287;28;20023;-76
2023/08/01 14:06:04;;;;;;;5.88;1.40;;;;;;;;;;5092098;28;20016;-76
2023/08/01 14:08:30;;;;;;;;;;;;;;;;;;5096490;28;20043;-76
2023/08/01 14:10:55;;;;;;;2.77;1.20;;;;;;;;;;5091776;28;19916;-76
2023/08/01 14:13:20;;;;;;;5.22;1.27;;;;;;;;;;5085389;28;20340;-76
2023/08/01 14:15:46;;;;;;;5.75;1.27;;;;;;;;;;5101918;28;20053;-76
2023/08/01 14:18:11;;;;;;;5.10;1.33;;;;;;;;;;5090391;28;20162;-76
2023/08/01 14:20:37;;;;;;;4.70;1.25;;;;;;;;;;5089696;28;20043;-76
2023/08/01 14:23:02;;;;;;;3.10;1.30;;;;;;;;;;5093143;28;20028;-75
2023/08/01 14:25:28;;;;;;;6.65;1.42;;;;;;;;;;5085025;28;20468;-76
2023/08/01 14:27:53;;;;;;;4.22;1.00;;;;;;;;;;5088145;28;20089;-76
2023/08/01 14:30:19;;;;;;;4.63;1.30;;;;;;;;;;5086391;28;20055;-77
2023/08/01 14:32:44;;;;;;;4.82;1.45;;;;;;;;;;5091681;28;20099;-76
2023/08/01 14:35:10;;;;;;;4.22;1.30;;;;;;;;;;5081327;28;20024;-76